DW1011 Weather Reports


Display with metric or nautical units.
time (UTC)temp
F
wind
direction
speed
MPH
gust
MPH
rain 1hr
in
rain 24hr
in
rain mn
in
humidity
%
barometer
mb
20210921054651 47 360 4.0 6.0 0.00 0.00 0.00 72 1031.4
20210921053116 47 360 3.0 6.0 0.00 0.00 0.00 76 1031.2
20210921051655 47 360 1.0 3.0 0.00 0.00 0.00 75 1030.9
20210921050131 47 360 0.0 2.0 0.00 0.00 0.00 76 1030.7
20210921044644 47 0 0.0 1.0 0.00 0.00 0.00 75 1030.5
20210921043102 47 0 0.0 0.0 0.00 0.00 0.00 74 1030.3
20210921041617 47 0 0.0 2.0 0.00 0.00 0.00 76 1030.3
20210921040109 48 360 1.0 5.0 0.00 0.00 0.00 74 1030.2
20210921034632 48 0 0.0 3.0 0.00 0.00 0.00 72 1030.1
20210921033133 48 360 4.0 10.0 0.00 0.00 0.00 73 1030.0
20210921031656 48 360 9.0 14.0 0.00 0.00 0.00 74 1029.9
20210921030252 49 360 10.0 13.0 0.00 0.00 0.00 71 1029.5
20210921024717 51 360 11.0 14.0 0.00 0.00 0.00 62 1029.0
20210921023211 52 360 12.0 18.0 0.00 0.00 0.00 57 1028.6
20210921021641 53 360 11.0 20.0 0.00 0.00 0.00 52 1027.5
20210921020217 54 360 10.0 19.0 0.00 0.00 0.00 48 1026.9
20210921014558 56 360 9.0 18.0 0.00 0.00 0.00 46 1025.7
20210921013149 58 360 12.0 21.0 0.00 0.00 0.00 38 1024.7
20210921011602 59 360 7.0 17.0 0.00 0.00 0.00 30 1023.8
20210921010121 60 360 8.0 14.0 0.00 0.00 0.00 29 1023.4
20210921004705 61 360 5.0 16.0 0.00 0.00 0.00 27 1023.3
20210921003156 61 360 13.0 17.0 0.00 0.00 0.00 26 1023.0
20210921001630 62 360 12.0 18.0 0.00 0.00 0.00 29 1022.8
20210921000129 62 360 13.0 19.0 0.00 0.00 0.00 28 1022.7
20210920234645 63 360 12.0 17.0 0.00 0.00 0.00 28 1022.5
20210920233102 63 360 9.0 13.0 0.00 0.00 0.00 28 1022.2
20210920231730 62 360 8.0 13.0 0.00 0.00 0.00 30 1022.1
20210920230202 62 360 8.0 14.0 0.00 0.00 0.00 30 1021.9
20210920224838 62 360 10.0 14.0 0.00 0.00 0.00 30 1021.7
20210920223118 62 360 5.0 10.0 0.00 0.00 0.00 30 1021.4
20210920221617 63 360 8.0 13.0 0.00 0.00 0.00 28 1021.4
20210920220112 65 360 6.0 10.0 0.00 0.00 0.00 28 1021.4
20210920214638 66 360 7.0 13.0 0.00 0.00 0.00 21 1021.4
20210920213139 67 360 0.0 10.0 0.00 0.00 0.00 21 1021.4
20210920211820 67 360 13.0 25.0 0.00 0.00 0.00 22 1021.1
20210920210200 66 360 1.0 14.0 0.00 0.00 0.00 20 1021.4
20210920204702 66 360 5.0 14.0 0.00 0.00 0.00 25 1021.4
20210920203150 66 360 10.0 15.0 0.00 0.00 0.00 19 1021.4
20210920201645 64 360 2.0 13.0 0.00 0.00 0.00 27 1021.9
20210920200202 63 360 1.0 6.0 0.00 0.00 0.00 28 1021.9
20210920194624 63 360 5.0 10.0 0.00 0.00 0.00 29 1022.0
20210920193118 63 22 5.0 14.0 0.00 0.00 0.00 29 1022.0
20210920191616 62 360 8.0 15.0 0.00 0.00 0.00 30 1022.0
20210920190146 62 38 6.0 15.0 0.00 0.00 0.00 31 1022.1
20210920184717 63 360 5.0 11.0 0.00 0.00 0.00 31 1022.1
20210920183113 62 360 3.0 11.0 0.00 0.00 0.00 31 1022.1
20210920181700 61 60 7.0 17.0 0.00 0.00 0.00 31 1022.1
20210920180141 62 0 2.0 9.0 0.00 0.00 0.00 31 1022.0
20210920174634 61 360 5.0 9.0 0.00 0.00 0.00 33 1021.9
20210920173119 61 360 5.0 9.0 0.00 0.00 0.00 34 1022.0
20210920171631 60 360 3.0 14.0 0.00 0.00 0.00 35 1022.0
20210920170144 60 360 2.0 9.0 0.00 0.00 0.00 35 1022.1
20210920164609 60 0 0.0 8.0 0.00 0.00 0.00 36 1022.0
20210920163115 59 360 3.0 10.0 0.00 0.00 0.00 38 1022.0
20210920161624 59 360 3.0 11.0 0.00 0.00 0.00 37 1021.9
20210920160146 58 360 5.0 13.0 0.00 0.00 0.00 38 1021.9
20210920154605 57 0 0.0 8.0 0.00 0.00 0.00 41 1021.7
20210920153109 57 360 4.0 10.0 0.00 0.00 0.00 43 1021.5
20210920151852 55 360 4.0 10.0 0.00 0.00 0.00 47 1021.4
20210920150116 55 360 3.0 9.0 0.00 0.00 0.00 47 1021.4
20210920144708 54 0 2.0 10.0 0.00 0.00 0.00 51 1021.1
20210920143102 53 360 4.0 10.0 0.00 0.00 0.00 56 1020.9
20210920141648 53 360 2.0 6.0 0.00 0.00 0.00 57 1020.9
20210920140241 52 360 2.0 6.0 0.00 0.00 0.00 59 1020.7
20210920134711 51 360 4.0 6.0 0.00 0.00 0.00 62 1020.3
20210920133143 50 360 3.0 8.0 0.00 0.00 0.00 65 1019.9
20210920131614 49 0 5.0 14.0 0.00 0.00 0.00 67 1019.2
20210920130114 49 360 3.0 10.0 0.00 0.00 0.00 66 1018.9
20210920124644 51 360 6.0 11.0 0.00 0.00 0.00 62 1018.6
20210920123203 53 360 7.0 14.0 0.00 0.00 0.00 51 1018.2
20210920121559 54 360 3.0 9.0 0.00 0.00 0.00 47 1017.8
20210920120109 54 360 3.0 8.0 0.00 0.00 0.00 48 1017.7
20210920114711 54 360 8.0 13.0 0.00 0.00 0.00 46 1017.3
20210920113238 54 360 5.0 18.0 0.00 0.00 0.00 48 1017.2
20210920111701 54 360 9.0 16.0 0.00 0.00 0.00 50 1017.1
20210920110121 55 360 7.0 11.0 0.00 0.00 0.00 49 1017.5
20210920104825 55 360 6.0 10.0 0.00 0.00 0.00 50 1017.1
20210920103200 56 360 13.0 19.0 0.00 0.00 0.00 50 1016.2
20210920101625 57 360 6.0 16.0 0.00 0.00 0.00 51 1015.5
20210920100144 56 360 5.0 9.0 0.00 0.00 0.00 57 1015.6
20210920094635 57 360 5.0 9.0 0.00 0.00 0.00 54 1016.1
20210920093217 56 360 2.0 6.0 0.00 0.00 0.00 56 1015.7
20210920091620 57 360 0.0 8.0 0.00 0.00 0.00 57 1016.0
20210920090104 57 360 0.0 5.0 0.00 0.00 0.00 57 1015.9
20210920084632 57 360 5.0 12.0 0.00 0.00 0.00 57 1015.9
20210920083204 57 360 10.0 17.0 0.00 0.00 0.00 57 1015.3
20210920081554 57 360 16.0 23.0 0.00 0.00 0.00 58 1015.1
20210920080123 57 360 18.0 30.0 0.00 0.00 0.00 59 1014.8
20210920074615 56 360 21.0 26.0 0.00 0.00 0.00 59 1014.8
20210920073105 57 360 13.0 19.0 0.00 0.00 0.00 58 1014.1
20210920071610 57 360 11.0 17.0 0.00 0.00 0.00 57 1013.9
20210920070133 57 360 7.0 10.0 0.00 0.00 0.00 56 1013.5
20210920064610 58 360 3.0 10.0 0.00 0.00 0.00 56 1013.4
20210920063115 59 360 9.0 15.0 0.00 0.00 0.00 54 1013.0
20210920061626 61 360 11.0 17.0 0.00 0.00 0.00 52 1012.3
20210920060203 65 360 7.0 16.0 0.00 0.00 0.00 45 1012.0